createdAt,value
2023-04-02T00:04:24.639Z,100404.19
2023-04-02T00:08:18.777Z,100421.09
2023-04-02T00:12:10.734Z,100411.14
2023-04-02T00:15:59.439Z,100411.10
2023-04-02T00:24:18.265Z,100421.67
2023-04-02T00:28:45.815Z,100425.05
2023-04-02T00:33:09.176Z,100423.54
2023-04-02T00:37:13.858Z,100430.09
2023-04-02T00:41:37.536Z,100433.16
2023-04-02T00:46:11.053Z,100433.94
2023-04-02T00:55:07.854Z,100436.64
2023-04-02T00:59:34.171Z,100434.27
2023-04-02T01:03:21.763Z,100437.00
2023-04-02T01:07:12.260Z,100444.27
2023-04-02T01:11:13.117Z,100444.65
2023-04-02T01:15:00.418Z,100439.27
2023-04-02T01:19:11.957Z,100443.98
2023-04-02T01:23:03.840Z,100452.06
2023-04-02T01:27:09.663Z,100451.09
2023-04-02T01:31:00.056Z,100462.37
2023-04-02T01:34:47.579Z,100463.13
2023-04-02T01:38:33.874Z,100467.39
2023-04-02T01:42:24.145Z,100472.77
2023-04-02T01:46:13.085Z,100476.12
2023-04-02T01:50:00.616Z,100481.95
2023-04-02T01:53:50.911Z,100486.66
2023-04-02T01:57:38.370Z,100497.07
2023-04-02T02:01:36.776Z,100505.48
2023-04-02T02:05:22.826Z,100504.33
2023-04-02T02:09:12.832Z,100499.39
2023-04-02T02:12:48.877Z,100507.62
2023-04-02T02:16:39.031Z,100514.52
2023-04-02T02:20:23.761Z,100517.31
2023-04-02T02:24:04.230Z,100526.08
2023-04-02T02:28:06.889Z,100523.85
2023-04-02T02:31:58.193Z,100529.52
2023-04-02T02:35:51.466Z,100532.03
2023-04-02T02:44:25.261Z,100540.95
2023-04-02T02:48:03.593Z,100544.47
2023-04-02T02:52:11.640Z,100547.63
2023-04-02T02:56:04.188Z,100550.50
2023-04-02T02:59:56.298Z,100559.17
2023-04-02T03:03:50.442Z,100563.97
2023-04-02T03:07:10.070Z,100569.19
2023-04-02T03:11:12.892Z,100569.16
2023-04-02T03:14:56.609Z,100581.04
2023-04-02T03:18:52.172Z,100579.48
2023-04-02T03:22:37.608Z,100578.67
2023-04-02T03:26:27.819Z,100592.48
2023-04-02T03:30:20.750Z,100591.71
2023-04-02T03:34:14.232Z,100600.92
2023-04-02T03:37:55.461Z,100602.06
2023-04-02T03:41:58.396Z,100611.41
2023-04-02T03:46:25.942Z,100620.54
2023-04-02T03:50:54.675Z,100624.55
2023-04-02T03:55:23.486Z,100636.27
2023-04-02T03:59:56.577Z,100639.68
2023-04-02T04:08:44.260Z,100661.64
2023-04-02T04:13:27.012Z,100673.05
2023-04-02T04:17:40.542Z,100683.55
2023-04-02T04:22:10.805Z,100691.77
2023-04-02T04:26:34.583Z,100696.86
2023-04-02T04:35:28.529Z,100713.10
2023-04-02T04:40:07.073Z,100718.29
2023-04-02T04:44:43.668Z,100725.91
2023-04-02T04:49:30.393Z,100723.61
2023-04-02T04:54:00.887Z,100731.30
2023-04-02T04:58:33.746Z,100736.03
2023-04-02T05:02:41.037Z,100746.14
2023-04-02T05:06:25.524Z,100750.16
2023-04-02T05:10:13.012Z,100760.38
2023-04-02T05:14:01.525Z,100771.45
2023-04-02T05:17:37.845Z,100770.33
2023-04-02T05:21:26.633Z,100781.75
2023-04-02T05:25:15.927Z,100778.84
2023-04-02T05:28:59.589Z,100774.95
2023-04-02T05:32:46.117Z,100792.29
2023-04-02T05:36:27.909Z,100794.43
2023-04-02T05:40:15.765Z,100799.00
2023-04-02T05:44:03.549Z,100804.18
2023-04-02T05:47:54.623Z,100809.61
2023-04-02T05:51:42.600Z,100808.09
2023-04-02T05:55:35.888Z,100813.01
2023-04-02T05:59:24.726Z,100819.52
2023-04-02T06:03:05.496Z,100823.58
2023-04-02T06:06:46.730Z,100829.88
2023-04-02T06:10:35.050Z,100830.66
2023-04-02T06:14:12.668Z,100835.78
2023-04-02T06:18:00.700Z,100845.84
2023-04-02T06:21:48.180Z,100845.82
2023-04-02T06:25:30.351Z,100850.11
2023-04-02T06:29:09.624Z,100865.53
2023-04-02T06:32:52.407Z,100872.23
2023-04-02T06:36:40.559Z,100898.37
2023-04-02T06:44:55.541Z,100895.91
2023-04-02T06:48:41.336Z,100897.08
2023-04-02T06:52:29.249Z,100909.14
2023-04-02T06:56:35.391Z,100911.73
2023-04-02T07:00:23.517Z,100921.41
2023-04-02T07:04:01.451Z,100925.29
2023-04-02T07:07:51.874Z,100931.53
2023-04-02T07:11:39.832Z,100927.61
2023-04-02T07:15:21.885Z,100929.08
2023-04-02T07:19:22.560Z,100934.58
2023-04-02T07:32:19.159Z,100947.77
2023-04-02T07:38:05.018Z,100969.59
2023-04-02T07:42:36.678Z,100977.44
2023-04-02T07:46:47.247Z,100981.33
2023-04-02T07:50:57.927Z,100978.77
2023-04-02T07:55:27.374Z,100982.69
2023-04-02T07:59:56.595Z,100997.37
2023-04-02T08:04:26.040Z,101008.20
2023-04-02T08:08:46.019Z,101012.16
2023-04-02T08:13:15.282Z,101016.52
2023-04-02T08:17:26.537Z,101018.98
2023-04-02T08:21:39.227Z,101027.27
2023-04-02T08:26:01.213Z,101033.80
2023-04-02T08:30:10.285Z,101030.63
2023-04-02T08:34:35.749Z,101034.39
2023-04-02T08:38:24.959Z,101042.91
2023-04-02T08:42:52.859Z,101044.44
2023-04-02T08:47:37.875Z,101059.81
2023-04-02T08:51:48.993Z,101058.90
2023-04-02T08:56:20.842Z,101066.39
2023-04-02T09:00:37.992Z,101068.42
2023-04-02T09:04:48.871Z,101069.34
2023-04-02T09:09:00.438Z,101058.28
2023-04-02T09:13:19.781Z,101069.95
2023-04-02T09:17:42.770Z,101073.97
2023-04-02T09:21:13.369Z,101080.23
2023-04-02T09:24:43.531Z,101079.40
2023-04-02T09:28:33.408Z,101087.52
2023-04-02T09:32:24.403Z,101093.80
2023-04-02T09:35:51.975Z,101099.17
2023-04-02T09:39:41.710Z,101103.30
2023-04-02T09:43:30.298Z,101104.73
2023-04-02T09:46:47.148Z,101112.98
2023-04-02T09:50:36.962Z,101116.62
2023-04-02T09:54:28.165Z,101121.55
2023-04-02T09:58:16.393Z,101134.51
2023-04-02T10:02:05.437Z,101134.89
2023-04-02T10:05:43.089Z,101136.05
2023-04-02T10:09:00.054Z,101137.20
2023-04-02T10:12:49.497Z,101145.92
2023-04-02T10:20:18.365Z,101152.69
2023-04-02T10:24:07.638Z,101158.36
2023-04-02T10:28:03.145Z,101167.86
2023-04-02T10:32:02.184Z,101167.55
2023-04-02T10:35:19.497Z,101169.62
2023-04-02T10:38:13.217Z,101180.08
2023-04-02T10:41:51.362Z,101174.77
2023-04-02T10:45:19.035Z,101184.64
2023-04-02T10:49:23.800Z,101186.46
2023-04-02T10:52:37.812Z,101194.98
2023-04-02T10:55:51.089Z,101198.76
2023-04-02T10:59:21.109Z,101201.56
2023-04-02T11:02:26.932Z,101204.70
2023-04-02T11:05:51.495Z,101205.73
2023-04-02T11:09:24.373Z,101206.06
2023-04-02T11:12:02.249Z,101206.23
2023-04-02T11:15:14.886Z,101205.33
2023-04-02T11:18:50.878Z,101212.68
2023-04-02T11:21:58.703Z,101218.02
2023-04-02T11:25:07.711Z,101220.33
2023-04-02T11:27:41.368Z,101227.35
2023-04-02T11:31:26.480Z,101226.11
2023-04-02T11:35:21.737Z,101242.64
2023-04-02T11:39:04.460Z,101249.30
2023-04-02T11:42:38.005Z,101235.70
2023-04-02T11:46:27.218Z,101242.80
2023-04-02T11:50:09.410Z,101260.27
2023-04-02T11:53:58.616Z,101259.39
2023-04-02T11:57:52.464Z,101265.11
2023-04-02T12:01:53.733Z,101264.70
2023-04-02T12:05:04.631Z,101270.98
2023-04-02T12:08:58.439Z,101283.06
2023-04-02T12:12:56.744Z,101280.13
2023-04-02T12:16:24.738Z,101288.58
2023-04-02T12:20:14.563Z,101300.11
2023-04-02T12:23:36.927Z,101297.66
2023-04-02T12:26:38.655Z,101300.39
2023-04-02T12:30:14.667Z,101303.59
2023-04-02T12:34:05.088Z,101301.34
2023-04-02T12:37:46.440Z,101302.03
2023-04-02T12:41:36.568Z,101298.30
2023-04-02T12:45:14.125Z,101299.63
2023-04-02T12:48:45.939Z,101300.02
2023-04-02T12:52:26.110Z,101295.92
2023-04-02T12:56:08.415Z,101295.21
2023-04-02T13:00:00.831Z,101302.23
2023-04-02T13:03:56.528Z,101313.98
2023-04-02T13:07:45.906Z,101318.20
2023-04-02T13:11:15.421Z,101323.78
2023-04-02T13:15:00.350Z,101326.17
2023-04-02T13:18:41.366Z,101326.02
2023-04-02T13:22:24.418Z,101330.36
2023-04-02T13:25:56.685Z,101331.77
2023-04-02T13:30:05.043Z,101340.31
2023-04-02T13:33:53.415Z,101349.29
2023-04-02T13:37:34.254Z,101351.85
2023-04-02T13:41:06.673Z,101353.87
2023-04-02T13:44:23.566Z,101359.30
2023-04-02T13:48:04.043Z,101361.83
2023-04-02T13:51:45.281Z,101362.48
2023-04-02T13:55:25.342Z,101367.92
2023-04-02T13:58:58.358Z,101368.77
2023-04-02T14:02:47.090Z,101374.39
2023-04-02T14:06:33.083Z,101385.48
2023-04-02T14:10:31.561Z,101383.04
2023-04-02T14:14:34.341Z,101382.80
2023-04-02T14:18:38.596Z,101387.02
2023-04-02T14:22:39.694Z,101389.66
2023-04-02T14:26:39.556Z,101399.84
2023-04-02T14:30:52.797Z,101399.89
2023-04-02T14:34:41.212Z,101398.16
2023-04-02T14:38:29.293Z,101398.00
2023-04-02T14:42:24.053Z,101405.81
2023-04-02T14:46:07.246Z,101412.21
2023-04-02T14:50:13.057Z,101412.98
2023-04-02T14:53:48.700Z,101415.70
2023-04-02T14:57:31.033Z,101413.64
2023-04-02T15:01:31.145Z,101415.41
2023-04-02T15:05:18.742Z,101417.56
2023-04-02T15:09:09.664Z,101420.16
2023-04-02T15:12:10.705Z,101421.52
2023-04-02T15:15:48.336Z,101420.46
2023-04-02T15:19:24.018Z,101425.83
2023-04-02T15:23:11.135Z,101435.27
2023-04-02T15:26:58.222Z,101436.23
2023-04-02T15:30:44.599Z,101444.38
2023-04-02T15:34:17.072Z,101448.72
2023-04-02T15:38:08.117Z,101454.11
2023-04-02T15:42:03.069Z,101459.89
2023-04-02T15:46:03.461Z,101462.05
2023-04-02T15:50:04.452Z,101465.92
2023-04-02T15:53:55.721Z,101480.11
2023-04-02T15:57:41.664Z,101479.86
2023-04-02T16:01:10.581Z,101488.41
2023-04-02T16:05:14.525Z,101494.76
2023-04-02T16:09:03.304Z,101501.37
2023-04-02T16:12:27.339Z,101505.47
2023-04-02T16:16:11.774Z,101509.35
2023-04-02T16:20:06.882Z,101516.36
2023-04-02T16:23:58.726Z,101526.64
2023-04-02T16:27:55.514Z,101526.45
2023-04-02T16:31:50.567Z,101532.24
2023-04-02T16:39:36.936Z,101543.15
2023-04-02T16:43:34.844Z,101550.14
2023-04-02T16:47:25.251Z,101550.19
2023-04-02T16:51:14.105Z,101553.59
2023-04-02T16:54:56.622Z,101563.05
2023-04-02T16:58:47.936Z,101565.69
2023-04-02T17:02:44.483Z,101573.00
2023-04-02T17:06:39.743Z,101578.32
2023-04-02T17:10:31.177Z,101584.95
2023-04-02T17:14:06.211Z,101590.04
2023-04-02T17:17:34.407Z,101601.11
2023-04-02T17:21:07.397Z,101606.96
2023-04-02T17:24:54.831Z,101614.77
2023-04-02T17:28:36.993Z,101619.72
2023-04-02T17:32:25.076Z,101636.09
2023-04-02T17:36:04.435Z,101644.88
2023-04-02T17:39:53.082Z,101651.36
2023-04-02T17:43:53.403Z,101647.84
2023-04-02T17:47:45.592Z,101659.17
2023-04-02T17:51:42.002Z,101665.54
2023-04-02T17:55:36.270Z,101683.08
2023-04-02T17:59:32.306Z,101691.89
2023-04-02T18:03:24.504Z,101699.20
2023-04-02T18:07:14.125Z,101704.02
2023-04-02T18:11:08.267Z,101710.46
2023-04-02T18:14:56.795Z,101727.73
2023-04-02T18:18:47.305Z,101732.98
2023-04-02T18:22:25.810Z,101748.02
2023-04-02T18:26:25.827Z,101758.16
2023-04-02T18:30:15.790Z,101761.17
2023-04-02T18:34:00.161Z,101773.92
2023-04-02T18:37:15.041Z,101778.17
2023-04-02T18:40:22.615Z,101781.67
2023-04-02T18:44:03.742Z,101787.69
2023-04-02T18:47:34.396Z,101794.39
2023-04-02T18:50:59.316Z,101796.52
2023-04-02T18:54:40.652Z,101800.83
2023-04-02T18:58:10.338Z,101801.13
2023-04-02T19:01:26.038Z,101803.94
2023-04-02T19:05:02.681Z,101809.80
2023-04-02T19:08:49.996Z,101813.00
2023-04-02T19:12:16.257Z,101815.20
2023-04-02T19:15:30.782Z,101822.02
2023-04-02T19:21:59.294Z,101822.19
2023-04-02T19:26:35.288Z,101831.63
2023-04-02T19:31:09.736Z,101831.48
2023-04-02T19:35:46.659Z,101835.11
2023-04-02T19:40:23.742Z,101835.04
2023-04-02T19:44:54.404Z,101838.02
2023-04-02T19:49:27.984Z,101838.97
2023-04-02T19:53:38.770Z,101850.08
2023-04-02T19:58:17.736Z,101851.71
2023-04-02T20:02:36.764Z,101859.27
2023-04-02T20:07:05.338Z,101860.96
2023-04-02T20:11:14.806Z,101867.95
2023-04-02T20:15:43.458Z,101866.61
2023-04-02T20:20:14.621Z,101869.68
2023-04-02T20:24:44.771Z,101880.34
2023-04-02T20:29:21.721Z,101883.39
2023-04-02T20:33:51.003Z,101891.30
2023-04-02T20:38:24.499Z,101902.52
2023-04-02T20:42:55.133Z,101909.23
2023-04-02T20:47:29.255Z,101917.09
2023-04-02T20:51:57.440Z,101922.95
2023-04-02T20:56:25.295Z,101932.06
2023-04-02T21:00:56.443Z,101937.46
2023-04-02T21:05:24.445Z,101944.98
2023-04-02T21:09:55.793Z,101954.66
2023-04-02T21:14:24.288Z,101960.59
2023-04-02T21:18:52.308Z,101960.34
2023-04-02T21:23:23.754Z,101963.86
2023-04-02T21:27:54.845Z,101978.58
2023-04-02T21:32:23.069Z,101973.98
2023-04-02T21:36:54.830Z,101981.94
2023-04-02T21:41:23.573Z,101987.16
2023-04-02T21:45:52.033Z,101987.98
2023-04-02T21:50:20.521Z,101996.46
2023-04-02T21:54:48.895Z,102000.92
2023-04-02T21:59:16.915Z,102002.30
2023-04-02T22:03:45.663Z,102005.98
2023-04-02T22:08:13.712Z,102009.27
2023-04-02T22:12:41.828Z,102012.59
2023-04-02T22:17:15.878Z,102020.86
2023-04-02T22:21:43.900Z,102019.80
2023-04-02T22:26:12.082Z,102023.55
2023-04-02T22:30:40.365Z,102023.07
2023-04-02T22:35:08.078Z,102031.94
2023-04-02T22:39:36.555Z,102033.82
2023-04-02T22:44:04.588Z,102042.36
2023-04-02T22:48:32.924Z,102045.95
2023-04-02T22:53:00.472Z,102048.86
2023-04-02T22:57:29.313Z,102053.61
2023-04-02T23:01:56.604Z,102058.61
2023-04-02T23:06:23.962Z,102062.61
2023-04-02T23:10:52.148Z,102064.56
2023-04-02T23:15:20.001Z,102066.39
2023-04-02T23:19:47.495Z,102073.87
2023-04-02T23:24:15.925Z,102071.94
2023-04-02T23:28:43.985Z,102075.13
2023-04-02T23:33:11.486Z,102070.52
2023-04-02T23:37:39.413Z,102071.60
2023-04-02T23:42:12.509Z,102069.65
2023-04-02T23:46:43.735Z,102070.31
2023-04-02T23:51:11.196Z,102070.88
